Česky Dansk Deutsch English Espańol Suomi Français Magyar Italiano Nederlands norsk Polski Portuguęs svenska Türkçe

 

Het Weer

Adana / Incirlik (Turkije)

13:50, 1 augustus 2016 (GMT)

NWNNE
WE
SWSSE
Home            
Adana / Incirlik Adana / Sakirpasa Iskenderun Lattakia Gaziantep Aleppo International Airport Kayseri / Erkilet Nevsehir Ercan Athalassa Konya Malatya / Erhac Larnaca Airport Urfa Sivas Akrotiri Beyrouth Aeroport Paphos Airport Palmyra Tokat Elazig Ankara / Guvercin Lik Ankara / Etimesgut

Om een weerknop op uw website of weblog te plaatsen, copieer onderstaande code en plak die in uw pagina. In het eerste vakje staat HTML-code, in het tweede vakje UBB-code.


Add to Google

Details

Wind speed:4 bf, 11 kn, 5.7 m/s, 12.7 miles/h, 20.4 km/h
Wind direction:SW, 220°
Láthatóság általában:Nagyobb, mint 10000 m, 10 km, 32800 ft, 6.2 miles
Clouds:CAVOC
Hőmérséklet:39°C, 102°F
Hőérzet:39°C, 102°F
Harmatpont:15°C, 59°F
Légköri nyomás:1005 hPa, 753.8 mmHg, 29.68 inHg, 0.992 atm
Relatív páratartalom:24.4 %
METAR:LTAG 011350Z 22011KT CAVOK 39/15 Q1005 NOSIG

Snelkoppelingen

Actuele weersinformatie van de hele wereld. Voeg locaties toe met het plus (+) symbool. Deze snelkoppelingen kunnen worden toegevoegd aan Google.

Lid van de Technetium groep

website free tracking
StatCounter NetStat W3C Validator

29-09-2022 04:48:44
astro.technetium.be money.technetium.be phote.technetium.be tafeltennistafel.technetium.be www.ligfiets.net